Terminal Aerodrome Forecast
Issued by NWS

Home | Current Version | Previous Version | Text Only | Print | Product List | Glossary Off
Versions: 1 2 3 4 5 6 7 8 9 10 11 12

047
FTUS43 KOAX 200522
TAFCDR
TAF
KCDR 200522Z 2006/2106 25005KT P6SM SCT250
     FM201200 26005KT P6SM BKN250
     FM201900 29009KT P6SM BKN100 OVC200=

USA.gov is the U.S. government's official web portal to all federal, state and local government web resources and services.